Sorry, Toronto: Spring weather is still a few weeks away
Sorry, Toronto: Spring weather is still a few weeks away MSN
Live monitor data for Toronto with Wunderground, NOAA, and AviationWeather sources, plus recent weather news headlines tied to this city.
| Date/Time (L) | Temp (C) | Dew Point (C) | Relative Humidity (%) | Wind Direction | Wind Speed (mph) | Visibility (miles) | Weather |
|---|---|---|---|---|---|---|---|
| May 1, 5:00 am | 2.8°C | -2.2°C | 70 | NW | 6 | 15.00 | |
| May 1, 4:15 am | 2.2°C | -3.3°C | 69 | WNW | 3 | 15.00 | |
| May 1, 4:00 am | 2.8°C | -3.3°C | 65 | NW | 5 | 15.00 | |
| May 1, 3:00 am | 2.8°C | -2.2°C | 70 | NW | 6 | 15.00 | |
| May 1, 2:00 am | 3.9°C | -3.3°C | 60 | N | 7 | 15.00 | |
| May 1, 1:00 am | 5°C | -3.9°C | 52 | N | 9 | 15.00 | |
| May 1, 12:00 am | 6.1°C | -3.9°C | 49 | N | 10 | 15.00 | |
| Apr 30, 11:00 pm | 7.2°C | -3.9°C | 45 | N | 9 | 15.00 | |
| Apr 30, 10:00 pm | 7.2°C | -3.3°C | 49 | N | 12 | 15.00 | |
| Apr 30, 9:00 pm | 7.2°C | -3.3°C | 49 | N | 12 | 15.00 | |
| Apr 30, 8:00 pm | 7.8°C | -3.3°C | 46 | N | 15G22 | 15.00 | |
| Apr 30, 7:00 pm | 8.9°C | -3.3°C | 43 | N | 14G21 | 15.00 | |
| Apr 30, 6:00 pm | 12.2°C | -2.2°C | 38 | N | 14 | 15.00 | |
| Apr 30, 5:00 pm | 12.2°C | -1.1°C | 41 | WNW | 16G24 | 15.00 | |
| Apr 30, 4:00 pm | 11.1°C | -1.1°C | 43 | NNW | 15G21 | 15.00 | |
| Apr 30, 3:00 pm | 11.1°C | -1.1°C | 43 | WNW | 17G24 | 15.00 | |
| Apr 30, 2:00 pm | 10°C | -1.1°C | 46 | NW | 16G23 | 15.00 | |
| Apr 30, 1:00 pm | 10°C | 0°C | 50 | NW | 14G22 | 15.00 | |
| Apr 30, 12:00 pm | 10°C | 1.7°C | 58 | NNW | 9 | 15.00 | |
| Apr 30, 11:00 am | 8.9°C | 2.8°C | 66 | NNW | 12G18 | 15.00 | |
| Apr 30, 10:00 am | 7.8°C | 1.7°C | 66 | NNW | 10 | 15.00 | |
| Apr 30, 9:17 am | 7.2°C | 2.8°C | 76 | N | 10 | 15.00 | |
| Apr 30, 9:00 am | 6.1°C | 2.8°C | 81 | NNW | 10 | 15.00 | light rain |
| Apr 30, 8:13 am | 6.1°C | 2.2°C | 76 | NNW | 13 | 15.00 | light rain |
| Apr 30, 8:00 am | 6.1°C | 2.2°C | 76 | NNW | 8 | 15.00 | |
| Apr 30, 7:00 am | 5°C | 2.2°C | 81 | NNW | 9 | 15.00 | |
| Apr 30, 6:00 am | 5°C | 1.1°C | 75 | NNW | 9 | 15.00 | |
| Apr 30, 5:00 am | 5°C | 1.1°C | 75 | NNW | 10 | 15.00 | |
| Apr 30, 4:00 am | 5°C | 0°C | 70 | NNW | 14 | 15.00 | |
| Apr 30, 3:00 am | 5°C | 0°C | 70 | NNW | 15 | 15.00 | |
| Apr 30, 2:00 am | 5°C | 0°C | 70 | NNW | 15 | 15.00 | |
| Apr 30, 1:00 am | 5°C | 0°C | 70 | NNW | 13 | 15.00 | |
| Apr 30, 12:00 am | 5°C | 0°C | 70 | NNW | 13 | 15.00 | |
| Apr 29, 11:00 pm | 5°C | 0°C | 70 | N | 13G20 | 15.00 | |
| Apr 29, 10:00 pm | 7.2°C | 1.1°C | 66 | NNW | 12 | 15.00 | |
| Apr 29, 9:00 pm | 7.2°C | 1.7°C | 70 | NNW | 12 | 15.00 | |
| Apr 29, 8:00 pm | 7.8°C | 2.8°C | 71 | NNW | 12 | 15.00 | |
| Apr 29, 7:29 pm | 7.2°C | 2.8°C | 76 | N | 13 | 15.00 | |
| Apr 29, 7:00 pm | 7.2°C | 2.8°C | 76 | N | 13 | 15.00 | light rain |
| Apr 29, 6:41 pm | 7.2°C | 2.8°C | 76 | NNW | 13 | 15.00 | light rain |
| Apr 29, 6:37 pm | 7.2°C | 2.8°C | 76 | NNW | 13 | 15.00 | |
| Apr 29, 6:04 pm | 7.8°C | 1.7°C | 66 | N | 20 | 12.00 | light rain |
| Apr 29, 6:00 pm | 7.8°C | 2.8°C | 71 | NNW | 15 | 15.00 | |
| Apr 29, 5:00 pm | 8.9°C | 3.9°C | 71 | N | 12G20 | 15.00 | |
| Apr 29, 4:47 pm | 8.9°C | 3.9°C | 71 | N | 12 | 15.00 | |
| Apr 29, 4:19 pm | 8.9°C | 3.9°C | 71 | N | 13 | 15.00 | light rain |
| Apr 29, 4:00 pm | 8.9°C | 5°C | 76 | N | 13 | 15.00 | light drizzle |
| Apr 29, 3:16 pm | 8.9°C | 5°C | 76 | N | 13 | 15.00 |
| Time | Temp (C) | Dew (C) | RH | Wind | Weather | Clouds | Vis |
|---|---|---|---|---|---|---|---|
| 2026-05-09 02:00:00Z | 9°C | 1°C | 150 | FEW15000 | 15 | ||
| 2026-05-09 01:00:00Z | 10°C | 0°C | 150 | FEW8500 | 15 | ||
| 2026-05-09 00:00:00Z | 11°C | 0°C | 160 | FEW8500 FEW26000 | 15 | ||
| 2026-05-08 23:00:00Z | 12°C | 0°C | 160 | FEW5000 FEW8700 FEW26000 | 15 | ||
| 2026-05-08 22:00:00Z | 12°C | 2°C | 140 | FEW6500 SCT8800 BKN25000 | 15 | ||
| 2026-05-08 21:00:00Z | 12°C | 3°C | 170 | FEW7500 BKN8700 BKN25000 | 15 | ||
| 2026-05-08 20:00:00Z | 12°C | 2°C | 180 | SCT7800 BKN9500 | 15 | ||
| 2026-05-08 19:00:00Z | 12°C | 0°C | 150 | SCT7200 BKN9100 | 15 | ||
| 2026-05-08 18:00:00Z | 10°C | 1°C | 150 | SCT5400 BKN7500 | 15 | ||
| 2026-05-08 17:00:00Z | 10°C | 2°C | 150 | SCT6400 BKN7500 | 15 | ||
| 2026-05-08 16:00:00Z | 10°C | 3°C | 150 | BKN5100 | 15 | ||
| 2026-05-08 15:00:00Z | 10°C | 1°C | 0 | SCT3500 | 15 | ||
| 2026-05-08 14:00:00Z | 8°C | 3°C | VRB | FEW2500 | 15 | ||
| 2026-05-08 13:00:00Z | 6°C | 2°C | 0 | FEW2500 FEW6000 | 15 | ||
| 2026-05-08 12:00:00Z | 4°C | 2°C | 180 | FEW3000 SCT4800 BKN10000 | 15 | ||
| 2026-05-08 11:47:00Z | 4°C | 1°C | 210 | -SHRA | FEW1500 SCT3000 BKN4800 | 15 | |
| 2026-05-08 11:43:00Z | 4°C | 1°C | 250 | SHRA | SCT1400 BKN2800 BKN8500 | 10+ | |
| 2026-05-08 11:33:00Z | 5°C | 1°C | 300 | -SHRA | FEW1400 BKN2500 BKN7000 | 10+ | |
| 2026-05-08 11:13:00Z | 5°C | 0°C | 10 | -SHRA | FEW2500 BKN3500 BKN8000 | 12 | |
| 2026-05-08 11:00:00Z | 5°C | 0°C | 10 | FEW3000 BKN4200 BKN7000 | 15 | ||
| 2026-05-08 10:34:00Z | 5°C | 0°C | 350 | BKN4400 OVC7500 | 15 | ||
| 2026-05-08 10:16:00Z | 5°C | 0°C | 330 | -RA | BKN4200 OVC8000 | 12 | |
| 2026-05-08 10:00:00Z | 5°C | 0°C | 260 | FEW5100 OVC7500 | 15 | ||
| 2026-05-08 09:00:00Z | 5°C | -1°C | 190 | OVC7200 | 15 | ||
| 2026-05-08 08:00:00Z | 5°C | -2°C | 240 | OVC9800 | 15 | ||
| 2026-05-08 07:00:00Z | 3°C | -3°C | 270 | BKN11000 | 15 | ||
| 2026-05-08 06:00:00Z | 5°C | -3°C | 20 | FEW9700 | 15 | ||
| 2026-05-08 05:00:00Z | 6°C | -3°C | 30 | FEW9200 | 15 | ||
| 2026-05-08 04:00:00Z | 6°C | -3°C | 30 | FEW6500 | 15 |
Sorry, Toronto: Spring weather is still a few weeks away MSN
Where is Toronto's spring weather? Experts say it's taking its time to get here CBC
WHY THE CITY OF TORONTO DENIED ONE OF ITS MOST FLOOD-PRONE NEIGHBOURHOODS AN EMERGENCY RESPONSE PLAN Penticton Herald
Rainy start to Mother’s Day weekend. Here’s your Toronto weather forecast Toronto Star
Temperatures could turn a corner ahead of Victoria Day long weekend CityNews Toronto
Temperature could drop below the freezing mark in parts of the GTA tonight CTV News
Good morning, Toronto! Here's today's weather! TorontoToday.ca
Toronto Star bestsellers: Carley Fortune gets a jump on summer with ‘Our Perfect Storm’ Toronto Star